sensor_id;sensor_type;location;lat;lon;timestamp;P1;durP1;ratioP1;P2;durP2;ratioP2
20294;SDS011;10306;52.128;5.208;2023-02-28T00:00:53;7.30;;;5.17;;
20294;SDS011;10306;52.128;5.208;2023-02-28T00:03:19;7.37;;;6.33;;
20294;SDS011;10306;52.128;5.208;2023-02-28T00:05:45;7.43;;;5.00;;
20294;SDS011;10306;52.128;5.208;2023-02-28T00:08:11;7.50;;;4.80;;
20294;SDS011;10306;52.128;5.208;2023-02-28T00:10:38;7.73;;;4.60;;
20294;SDS011;10306;52.128;5.208;2023-02-28T00:13:04;7.93;;;4.83;;
20294;SDS011;10306;52.128;5.208;2023-02-28T00:15:31;5.23;;;4.70;;
20294;SDS011;10306;52.128;5.208;2023-02-28T00:17:58;7.40;;;4.50;;
20294;SDS011;10306;52.128;5.208;2023-02-28T00:20:24;4.07;;;3.77;;
20294;SDS011;10306;52.128;5.208;2023-02-28T00:22:51;5.60;;;4.37;;
20294;SDS011;10306;52.128;5.208;2023-02-28T00:25:18;4.00;;;3.50;;
20294;SDS011;10306;52.128;5.208;2023-02-28T00:27:44;3.60;;;2.90;;
20294;SDS011;10306;52.128;5.208;2023-02-28T00:30:12;3.77;;;3.40;;
20294;SDS011;10306;52.128;5.208;2023-02-28T00:32:38;4.77;;;3.40;;
20294;SDS011;10306;52.128;5.208;2023-02-28T00:35:04;3.40;;;2.73;;
20294;SDS011;10306;52.128;5.208;2023-02-28T00:37:30;5.17;;;3.60;;
20294;SDS011;10306;52.128;5.208;2023-02-28T00:39:57;4.57;;;2.80;;
20294;SDS011;10306;52.128;5.208;2023-02-28T00:42:23;4.37;;;3.30;;
20294;SDS011;10306;52.128;5.208;2023-02-28T00:44:49;4.67;;;3.83;;
20294;SDS011;10306;52.128;5.208;2023-02-28T00:47:15;3.77;;;3.33;;
20294;SDS011;10306;52.128;5.208;2023-02-28T00:49:41;3.80;;;2.90;;
20294;SDS011;10306;52.128;5.208;2023-02-28T00:52:07;7.53;;;3.50;;
20294;SDS011;10306;52.128;5.208;2023-02-28T00:54:34;3.53;;;3.23;;
20294;SDS011;10306;52.128;5.208;2023-02-28T00:57:00;3.37;;;3.17;;
20294;SDS011;10306;52.128;5.208;2023-02-28T00:59:26;3.57;;;3.27;;
20294;SDS011;10306;52.128;5.208;2023-02-28T01:01:52;3.10;;;2.90;;
20294;SDS011;10306;52.128;5.208;2023-02-28T01:04:18;3.40;;;3.17;;
20294;SDS011;10306;52.128;5.208;2023-02-28T01:06:43;3.70;;;2.87;;
20294;SDS011;10306;52.128;5.208;2023-02-28T01:09:10;3.77;;;3.20;;
20294;SDS011;10306;52.128;5.208;2023-02-28T01:11:36;2.90;;;2.70;;
20294;SDS011;10306;52.128;5.208;2023-02-28T01:14:02;3.00;;;2.80;;
20294;SDS011;10306;52.128;5.208;2023-02-28T01:16:29;3.23;;;2.93;;
20294;SDS011;10306;52.128;5.208;2023-02-28T01:18:55;2.70;;;2.50;;
20294;SDS011;10306;52.128;5.208;2023-02-28T01:21:21;2.93;;;2.50;;
20294;SDS011;10306;52.128;5.208;2023-02-28T01:23:47;2.53;;;2.43;;
20294;SDS011;10306;52.128;5.208;2023-02-28T01:26:14;3.17;;;2.80;;
20294;SDS011;10306;52.128;5.208;2023-02-28T01:28:41;2.97;;;2.77;;
20294;SDS011;10306;52.128;5.208;2023-02-28T01:31:07;5.57;;;3.13;;
20294;SDS011;10306;52.128;5.208;2023-02-28T01:33:33;4.20;;;2.47;;
20294;SDS011;10306;52.128;5.208;2023-02-28T01:36:00;2.97;;;2.77;;
20294;SDS011;10306;52.128;5.208;2023-02-28T01:38:26;3.97;;;2.63;;
20294;SDS011;10306;52.128;5.208;2023-02-28T01:40:53;3.00;;;2.70;;
20294;SDS011;10306;52.128;5.208;2023-02-28T01:43:21;2.90;;;2.70;;
20294;SDS011;10306;52.128;5.208;2023-02-28T01:45:47;4.93;;;2.80;;
20294;SDS011;10306;52.128;5.208;2023-02-28T01:48:13;3.87;;;2.90;;
20294;SDS011;10306;52.128;5.208;2023-02-28T01:50:41;3.00;;;2.80;;
20294;SDS011;10306;52.128;5.208;2023-02-28T01:53:10;2.50;;;2.20;;
20294;SDS011;10306;52.128;5.208;2023-02-28T01:55:39;5.03;;;2.60;;
20294;SDS011;10306;52.128;5.208;2023-02-28T01:58:05;3.30;;;3.00;;
20294;SDS011;10306;52.128;5.208;2023-02-28T02:00:33;2.40;;;2.27;;
20294;SDS011;10306;52.128;5.208;2023-02-28T02:03:01;5.30;;;2.67;;
20294;SDS011;10306;52.128;5.208;2023-02-28T02:05:30;3.30;;;2.70;;
20294;SDS011;10306;52.128;5.208;2023-02-28T02:08:12;3.27;;;2.63;;
20294;SDS011;10306;52.128;5.208;2023-02-28T02:10:45;3.37;;;2.70;;
20294;SDS011;10306;52.128;5.208;2023-02-28T02:21:08;3.37;;;2.47;;
20294;SDS011;10306;52.128;5.208;2023-02-28T02:31:55;2.77;;;2.60;;
20294;SDS011;10306;52.128;5.208;2023-02-28T02:37:11;3.87;;;2.90;;
20294;SDS011;10306;52.128;5.208;2023-02-28T02:39:44;2.40;;;2.30;;
20294;SDS011;10306;52.128;5.208;2023-02-28T02:42:18;2.67;;;2.47;;
20294;SDS011;10306;52.128;5.208;2023-02-28T02:44:47;3.77;;;2.23;;
20294;SDS011;10306;52.128;5.208;2023-02-28T02:47:15;3.20;;;2.30;;
20294;SDS011;10306;52.128;5.208;2023-02-28T02:49:44;2.50;;;2.30;;
20294;SDS011;10306;52.128;5.208;2023-02-28T02:52:13;3.50;;;2.47;;
20294;SDS011;10306;52.128;5.208;2023-02-28T02:54:40;3.40;;;2.30;;
20294;SDS011;10306;52.128;5.208;2023-02-28T02:57:08;2.60;;;2.10;;
20294;SDS011;10306;52.128;5.208;2023-02-28T02:59:36;2.47;;;2.03;;
20294;SDS011;10306;52.128;5.208;2023-02-28T03:02:04;3.43;;;2.37;;
20294;SDS011;10306;52.128;5.208;2023-02-28T03:04:32;2.40;;;2.30;;
20294;SDS011;10306;52.128;5.208;2023-02-28T03:06:59;2.60;;;2.40;;
20294;SDS011;10306;52.128;5.208;2023-02-28T03:09:25;2.47;;;2.27;;
20294;SDS011;10306;52.128;5.208;2023-02-28T03:11:52;5.37;;;2.20;;
20294;SDS011;10306;52.128;5.208;2023-02-28T03:17:08;2.67;;;2.13;;
20294;SDS011;10306;52.128;5.208;2023-02-28T03:19:45;2.90;;;2.70;;
20294;SDS011;10306;52.128;5.208;2023-02-28T03:27:28;2.50;;;2.30;;
20294;SDS011;10306;52.128;5.208;2023-02-28T03:30:00;3.80;;;2.47;;
20294;SDS011;10306;52.128;5.208;2023-02-28T03:32:28;2.93;;;2.23;;
20294;SDS011;10306;52.128;5.208;2023-02-28T03:35:38;2.47;;;2.27;;
20294;SDS011;10306;52.128;5.208;2023-02-28T03:37:46;2.50;;;2.23;;
20294;SDS011;10306;52.128;5.208;2023-02-28T03:40:17;3.10;;;2.53;;
20294;SDS011;10306;52.128;5.208;2023-02-28T03:42:45;2.50;;;2.30;;
20294;SDS011;10306;52.128;5.208;2023-02-28T03:45:17;2.50;;;2.40;;
20294;SDS011;10306;52.128;5.208;2023-02-28T03:50:23;2.60;;;2.27;;
20294;SDS011;10306;52.128;5.208;2023-02-28T03:52:51;3.63;;;2.43;;
20294;SDS011;10306;52.128;5.208;2023-02-28T03:55:19;4.40;;;2.20;;
20294;SDS011;10306;52.128;5.208;2023-02-28T04:00:31;2.53;;;2.40;;
20294;SDS011;10306;52.128;5.208;2023-02-28T04:02:58;4.90;;;2.77;;
20294;SDS011;10306;52.128;5.208;2023-02-28T04:05:24;3.00;;;2.50;;
20294;SDS011;10306;52.128;5.208;2023-02-28T04:07:51;3.83;;;2.37;;
20294;SDS011;10306;52.128;5.208;2023-02-28T04:10:17;2.83;;;2.63;;
20294;SDS011;10306;52.128;5.208;2023-02-28T04:12:43;3.23;;;2.77;;
20294;SDS011;10306;52.128;5.208;2023-02-28T04:15:09;2.57;;;2.37;;
20294;SDS011;10306;52.128;5.208;2023-02-28T04:17:36;3.37;;;2.53;;
20294;SDS011;10306;52.128;5.208;2023-02-28T04:20:02;9.97;;;3.10;;
20294;SDS011;10306;52.128;5.208;2023-02-28T04:22:28;3.30;;;2.67;;
20294;SDS011;10306;52.128;5.208;2023-02-28T04:24:54;3.33;;;3.00;;
20294;SDS011;10306;52.128;5.208;2023-02-28T04:27:21;2.77;;;2.63;;
20294;SDS011;10306;52.128;5.208;2023-02-28T04:29:47;3.53;;;3.20;;
20294;SDS011;10306;52.128;5.208;2023-02-28T04:32:13;2.90;;;2.70;;
20294;SDS011;10306;52.128;5.208;2023-02-28T04:34:39;4.17;;;3.27;;
20294;SDS011;10306;52.128;5.208;2023-02-28T04:37:06;7.73;;;3.63;;
20294;SDS011;10306;52.128;5.208;2023-02-28T04:39:34;3.90;;;2.97;;
20294;SDS011;10306;52.128;5.208;2023-02-28T04:42:01;3.70;;;3.40;;
20294;SDS011;10306;52.128;5.208;2023-02-28T04:44:27;3.63;;;3.27;;
20294;SDS011;10306;52.128;5.208;2023-02-28T04:46:53;3.83;;;3.53;;
20294;SDS011;10306;52.128;5.208;2023-02-28T04:49:19;3.93;;;3.63;;
20294;SDS011;10306;52.128;5.208;2023-02-28T04:51:45;4.37;;;3.27;;
20294;SDS011;10306;52.128;5.208;2023-02-28T04:54:11;3.03;;;2.83;;
20294;SDS011;10306;52.128;5.208;2023-02-28T04:56:38;3.80;;;3.10;;
20294;SDS011;10306;52.128;5.208;2023-02-28T04:59:04;3.73;;;3.50;;
20294;SDS011;10306;52.128;5.208;2023-02-28T05:01:30;3.40;;;2.97;;
20294;SDS011;10306;52.128;5.208;2023-02-28T05:03:57;3.83;;;3.40;;
20294;SDS011;10306;52.128;5.208;2023-02-28T05:06:25;3.90;;;3.13;;
20294;SDS011;10306;52.128;5.208;2023-02-28T05:08:51;2.93;;;2.67;;
20294;SDS011;10306;52.128;5.208;2023-02-28T05:11:21;3.20;;;3.00;;
20294;SDS011;10306;52.128;5.208;2023-02-28T05:13:48;3.47;;;3.17;;
20294;SDS011;10306;52.128;5.208;2023-02-28T05:16:14;3.57;;;3.23;;
20294;SDS011;10306;52.128;5.208;2023-02-28T05:18:40;3.30;;;2.90;;
20294;SDS011;10306;52.128;5.208;2023-02-28T05:21:12;3.13;;;2.70;;
20294;SDS011;10306;52.128;5.208;2023-02-28T05:23:48;3.43;;;2.77;;
20294;SDS011;10306;52.128;5.208;2023-02-28T05:26:14;2.93;;;2.80;;
20294;SDS011;10306;52.128;5.208;2023-02-28T05:28:40;3.07;;;2.87;;
20294;SDS011;10306;52.128;5.208;2023-02-28T05:31:07;3.33;;;2.93;;
20294;SDS011;10306;52.128;5.208;2023-02-28T05:33:33;3.20;;;2.70;;
20294;SDS011;10306;52.128;5.208;2023-02-28T05:35:59;2.83;;;2.63;;
20294;SDS011;10306;52.128;5.208;2023-02-28T05:38:25;4.13;;;2.70;;
20294;SDS011;10306;52.128;5.208;2023-02-28T05:40:51;4.17;;;2.60;;
20294;SDS011;10306;52.128;5.208;2023-02-28T05:43:18;2.63;;;2.50;;
20294;SDS011;10306;52.128;5.208;2023-02-28T05:45:44;4.77;;;2.50;;
20294;SDS011;10306;52.128;5.208;2023-02-28T05:48:10;3.00;;;2.80;;
20294;SDS011;10306;52.128;5.208;2023-02-28T05:50:36;2.80;;;2.60;;
20294;SDS011;10306;52.128;5.208;2023-02-28T05:53:02;2.67;;;2.47;;
20294;SDS011;10306;52.128;5.208;2023-02-28T05:55:28;3.23;;;2.93;;
20294;SDS011;10306;52.128;5.208;2023-02-28T05:57:54;3.07;;;2.80;;
20294;SDS011;10306;52.128;5.208;2023-02-28T06:00:21;3.10;;;2.90;;
20294;SDS011;10306;52.128;5.208;2023-02-28T06:02:47;2.87;;;2.67;;
20294;SDS011;10306;52.128;5.208;2023-02-28T06:05:14;3.30;;;3.00;;
20294;SDS011;10306;52.128;5.208;2023-02-28T06:07:40;6.60;;;2.90;;
20294;SDS011;10306;52.128;5.208;2023-02-28T06:10:06;2.90;;;2.70;;
20294;SDS011;10306;52.128;5.208;2023-02-28T06:12:33;3.47;;;2.67;;
20294;SDS011;10306;52.128;5.208;2023-02-28T06:14:59;7.07;;;3.40;;
20294;SDS011;10306;52.128;5.208;2023-02-28T06:17:24;3.10;;;2.90;;
20294;SDS011;10306;52.128;5.208;2023-02-28T06:19:50;5.13;;;3.27;;
20294;SDS011;10306;52.128;5.208;2023-02-28T06:22:16;4.63;;;3.30;;
20294;SDS011;10306;52.128;5.208;2023-02-28T06:24:42;3.67;;;3.40;;
20294;SDS011;10306;52.128;5.208;2023-02-28T06:27:08;3.90;;;3.60;;
20294;SDS011;10306;52.128;5.208;2023-02-28T06:29:34;3.53;;;3.23;;
20294;SDS011;10306;52.128;5.208;2023-02-28T06:32:01;5.57;;;3.37;;
20294;SDS011;10306;52.128;5.208;2023-02-28T06:34:27;3.37;;;3.17;;
20294;SDS011;10306;52.128;5.208;2023-02-28T06:36:53;3.70;;;3.40;;
20294;SDS011;10306;52.128;5.208;2023-02-28T06:39:19;5.27;;;3.80;;
20294;SDS011;10306;52.128;5.208;2023-02-28T06:41:45;3.77;;;3.57;;
20294;SDS011;10306;52.128;5.208;2023-02-28T06:44:13;5.57;;;3.57;;
20294;SDS011;10306;52.128;5.208;2023-02-28T06:46:40;3.93;;;3.70;;
20294;SDS011;10306;52.128;5.208;2023-02-28T06:49:06;3.97;;;3.67;;
20294;SDS011;10306;52.128;5.208;2023-02-28T06:51:33;3.63;;;3.43;;
20294;SDS011;10306;52.128;5.208;2023-02-28T06:54:00;4.90;;;4.00;;
20294;SDS011;10306;52.128;5.208;2023-02-28T06:56:25;4.43;;;4.03;;
20294;SDS011;10306;52.128;5.208;2023-02-28T06:58:51;4.17;;;3.77;;
20294;SDS011;10306;52.128;5.208;2023-02-28T07:01:18;4.67;;;4.37;;
20294;SDS011;10306;52.128;5.208;2023-02-28T07:03:44;6.57;;;4.20;;
20294;SDS011;10306;52.128;5.208;2023-02-28T07:06:10;3.87;;;3.60;;
20294;SDS011;10306;52.128;5.208;2023-02-28T07:08:36;4.10;;;3.80;;
20294;SDS011;10306;52.128;5.208;2023-02-28T07:11:03;7.10;;;4.10;;
20294;SDS011;10306;52.128;5.208;2023-02-28T07:13:29;4.60;;;4.20;;
20294;SDS011;10306;52.128;5.208;2023-02-28T07:15:59;4.70;;;4.40;;
20294;SDS011;10306;52.128;5.208;2023-02-28T07:18:25;4.73;;;4.33;;
20294;SDS011;10306;52.128;5.208;2023-02-28T07:20:51;4.63;;;4.20;;
20294;SDS011;10306;52.128;5.208;2023-02-28T07:23:18;5.03;;;4.60;;
20294;SDS011;10306;52.128;5.208;2023-02-28T07:25:44;4.43;;;4.13;;
20294;SDS011;10306;52.128;5.208;2023-02-28T07:28:11;5.43;;;4.60;;
20294;SDS011;10306;52.128;5.208;2023-02-28T07:30:37;4.97;;;4.57;;
20294;SDS011;10306;52.128;5.208;2023-02-28T07:33:03;4.67;;;4.27;;
20294;SDS011;10306;52.128;5.208;2023-02-28T07:35:29;6.23;;;4.30;;
20294;SDS011;10306;52.128;5.208;2023-02-28T07:37:56;4.73;;;4.43;;
20294;SDS011;10306;52.128;5.208;2023-02-28T07:40:23;4.40;;;4.10;;
20294;SDS011;10306;52.128;5.208;2023-02-28T07:42:48;4.90;;;4.50;;
20294;SDS011;10306;52.128;5.208;2023-02-28T07:45:14;5.37;;;4.97;;
20294;SDS011;10306;52.128;5.208;2023-02-28T07:47:42;5.40;;;5.03;;
20294;SDS011;10306;52.128;5.208;2023-02-28T07:50:09;5.17;;;4.77;;
20294;SDS011;10306;52.128;5.208;2023-02-28T07:52:36;7.00;;;4.67;;
20294;SDS011;10306;52.128;5.208;2023-02-28T07:55:02;5.17;;;4.67;;
20294;SDS011;10306;52.128;5.208;2023-02-28T07:57:29;5.27;;;4.77;;
20294;SDS011;10306;52.128;5.208;2023-02-28T07:59:55;6.00;;;5.40;;
20294;SDS011;10306;52.128;5.208;2023-02-28T08:02:21;5.80;;;4.70;;
20294;SDS011;10306;52.128;5.208;2023-02-28T08:04:47;5.20;;;4.80;;
20294;SDS011;10306;52.128;5.208;2023-02-28T08:07:14;4.93;;;4.53;;
20294;SDS011;10306;52.128;5.208;2023-02-28T08:09:40;4.87;;;4.53;;
20294;SDS011;10306;52.128;5.208;2023-02-28T08:12:07;4.57;;;4.23;;
20294;SDS011;10306;52.128;5.208;2023-02-28T08:14:33;4.73;;;4.37;;
20294;SDS011;10306;52.128;5.208;2023-02-28T08:16:59;4.90;;;3.83;;
20294;SDS011;10306;52.128;5.208;2023-02-28T08:19:25;5.23;;;4.57;;
20294;SDS011;10306;52.128;5.208;2023-02-28T08:21:51;5.10;;;4.40;;
20294;SDS011;10306;52.128;5.208;2023-02-28T08:24:17;4.97;;;4.67;;
20294;SDS011;10306;52.128;5.208;2023-02-28T08:26:43;7.90;;;4.70;;
20294;SDS011;10306;52.128;5.208;2023-02-28T08:29:09;4.80;;;4.50;;
20294;SDS011;10306;52.128;5.208;2023-02-28T08:31:35;5.30;;;4.80;;
20294;SDS011;10306;52.128;5.208;2023-02-28T08:34:05;5.13;;;4.63;;
20294;SDS011;10306;52.128;5.208;2023-02-28T08:36:31;4.83;;;4.50;;
20294;SDS011;10306;52.128;5.208;2023-02-28T08:38:57;5.13;;;4.77;;
20294;SDS011;10306;52.128;5.208;2023-02-28T08:41:24;5.53;;;5.03;;
20294;SDS011;10306;52.128;5.208;2023-02-28T08:43:50;5.57;;;5.10;;
20294;SDS011;10306;52.128;5.208;2023-02-28T08:46:16;5.53;;;5.13;;
20294;SDS011;10306;52.128;5.208;2023-02-28T08:48:42;6.87;;;4.73;;
20294;SDS011;10306;52.128;5.208;2023-02-28T08:51:13;6.43;;;5.00;;
20294;SDS011;10306;52.128;5.208;2023-02-28T08:53:41;5.37;;;5.00;;
20294;SDS011;10306;52.128;5.208;2023-02-28T08:56:08;4.60;;;4.20;;
20294;SDS011;10306;52.128;5.208;2023-02-28T08:58:34;6.23;;;4.40;;
20294;SDS011;10306;52.128;5.208;2023-02-28T09:01:06;5.20;;;4.80;;
20294;SDS011;10306;52.128;5.208;2023-02-28T09:03:32;4.43;;;4.00;;
20294;SDS011;10306;52.128;5.208;2023-02-28T09:05:59;4.57;;;4.27;;
20294;SDS011;10306;52.128;5.208;2023-02-28T09:08:27;5.83;;;4.10;;
20294;SDS011;10306;52.128;5.208;2023-02-28T09:10:53;5.13;;;4.30;;
20294;SDS011;10306;52.128;5.208;2023-02-28T09:13:19;3.97;;;3.77;;
20294;SDS011;10306;52.128;5.208;2023-02-28T09:15:45;4.30;;;3.90;;
20294;SDS011;10306;52.128;5.208;2023-02-28T09:18:11;5.40;;;3.63;;
20294;SDS011;10306;52.128;5.208;2023-02-28T09:20:38;3.40;;;3.20;;
20294;SDS011;10306;52.128;5.208;2023-02-28T09:23:05;4.77;;;4.13;;
20294;SDS011;10306;52.128;5.208;2023-02-28T09:25:31;4.73;;;3.87;;
20294;SDS011;10306;52.128;5.208;2023-02-28T09:27:57;5.17;;;3.40;;
20294;SDS011;10306;52.128;5.208;2023-02-28T09:30:23;3.67;;;3.37;;
20294;SDS011;10306;52.128;5.208;2023-02-28T09:32:49;3.57;;;3.37;;
20294;SDS011;10306;52.128;5.208;2023-02-28T09:35:19;3.47;;;3.27;;
20294;SDS011;10306;52.128;5.208;2023-02-28T09:37:45;3.20;;;3.00;;
20294;SDS011;10306;52.128;5.208;2023-02-28T09:40:12;3.50;;;3.30;;
20294;SDS011;10306;52.128;5.208;2023-02-28T09:42:39;3.20;;;3.00;;
20294;SDS011;10306;52.128;5.208;2023-02-28T09:45:06;3.60;;;3.30;;
20294;SDS011;10306;52.128;5.208;2023-02-28T09:47:38;3.20;;;3.00;;
20294;SDS011;10306;52.128;5.208;2023-02-28T09:52:57;3.83;;;3.53;;
20294;SDS011;10306;52.128;5.208;2023-02-28T09:55:37;3.00;;;2.80;;
20294;SDS011;10306;52.128;5.208;2023-02-28T09:58:05;2.17;;;2.07;;
20294;SDS011;10306;52.128;5.208;2023-02-28T10:00:36;2.63;;;2.53;;
20294;SDS011;10306;52.128;5.208;2023-02-28T10:05:53;3.00;;;2.80;;
20294;SDS011;10306;52.128;5.208;2023-02-28T10:08:25;2.70;;;2.50;;
20294;SDS011;10306;52.128;5.208;2023-02-28T10:10:55;2.53;;;2.43;;
20294;SDS011;10306;52.128;5.208;2023-02-28T10:13:33;2.47;;;2.37;;
20294;SDS011;10306;52.128;5.208;2023-02-28T10:16:05;2.43;;;2.23;;
20294;SDS011;10306;52.128;5.208;2023-02-28T10:18:39;2.30;;;2.20;;
20294;SDS011;10306;52.128;5.208;2023-02-28T10:21:09;1.87;;;1.77;;
20294;SDS011;10306;52.128;5.208;2023-02-28T10:23:39;2.00;;;1.90;;
20294;SDS011;10306;52.128;5.208;2023-02-28T10:26:12;1.73;;;1.73;;
20294;SDS011;10306;52.128;5.208;2023-02-28T10:28:38;1.70;;;1.60;;
20294;SDS011;10306;52.128;5.208;2023-02-28T10:31:05;1.80;;;1.70;;
20294;SDS011;10306;52.128;5.208;2023-02-28T10:33:32;1.30;;;1.30;;
20294;SDS011;10306;52.128;5.208;2023-02-28T10:36:02;1.43;;;1.40;;
20294;SDS011;10306;52.128;5.208;2023-02-28T10:41:11;1.50;;;1.50;;
20294;SDS011;10306;52.128;5.208;2023-02-28T10:43:38;1.50;;;1.50;;
20294;SDS011;10306;52.128;5.208;2023-02-28T10:46:10;1.90;;;1.80;;
20294;SDS011;10306;52.128;5.208;2023-02-28T10:48:40;1.70;;;1.60;;
20294;SDS011;10306;52.128;5.208;2023-02-28T10:51:14;1.53;;;1.53;;
20294;SDS011;10306;52.128;5.208;2023-02-28T10:53:47;1.63;;;1.53;;
20294;SDS011;10306;52.128;5.208;2023-02-28T10:56:15;1.40;;;1.40;;
20294;SDS011;10306;52.128;5.208;2023-02-28T10:58:44;1.60;;;1.50;;
20294;SDS011;10306;52.128;5.208;2023-02-28T11:01:13;1.57;;;1.57;;
20294;SDS011;10306;52.128;5.208;2023-02-28T11:03:40;1.70;;;1.60;;
20294;SDS011;10306;52.128;5.208;2023-02-28T11:06:07;1.47;;;1.47;;
20294;SDS011;10306;52.128;5.208;2023-02-28T11:08:33;2.40;;;1.70;;
20294;SDS011;10306;52.128;5.208;2023-02-28T11:11:01;1.40;;;1.40;;
20294;SDS011;10306;52.128;5.208;2023-02-28T11:13:33;1.63;;;1.53;;
20294;SDS011;10306;52.128;5.208;2023-02-28T11:16:00;1.50;;;1.50;;
20294;SDS011;10306;52.128;5.208;2023-02-28T11:20:53;2.60;;;1.50;;
20294;SDS011;10306;52.128;5.208;2023-02-28T11:23:20;1.23;;;1.23;;
20294;SDS011;10306;52.128;5.208;2023-02-28T11:25:54;1.40;;;1.30;;
20294;SDS011;10306;52.128;5.208;2023-02-28T11:31:01;1.50;;;1.50;;
20294;SDS011;10306;52.128;5.208;2023-02-28T11:36:11;1.97;;;1.70;;
20294;SDS011;10306;52.128;5.208;2023-02-28T11:38:38;1.60;;;1.50;;
20294;SDS011;10306;52.128;5.208;2023-02-28T11:41:11;1.40;;;1.30;;
20294;SDS011;10306;52.128;5.208;2023-02-28T11:46:20;1.20;;;1.20;;
20294;SDS011;10306;52.128;5.208;2023-02-28T11:48:57;2.53;;;2.10;;
20294;SDS011;10306;52.128;5.208;2023-02-28T11:51:27;1.37;;;1.27;;
20294;SDS011;10306;52.128;5.208;2023-02-28T11:59:04;1.40;;;1.40;;
20294;SDS011;10306;52.128;5.208;2023-02-28T12:01:40;1.37;;;1.30;;
20294;SDS011;10306;52.128;5.208;2023-02-28T12:07:18;1.60;;;1.50;;
20294;SDS011;10306;52.128;5.208;2023-02-28T12:09:59;1.57;;;1.47;;
20294;SDS011;10306;52.128;5.208;2023-02-28T12:12:43;1.30;;;1.30;;
20294;SDS011;10306;52.128;5.208;2023-02-28T12:26:10;1.30;;;1.30;;
20294;SDS011;10306;52.128;5.208;2023-02-28T12:28:44;2.37;;;1.40;;
20294;SDS011;10306;52.128;5.208;2023-02-28T12:31:21;1.60;;;1.50;;
20294;SDS011;10306;52.128;5.208;2023-02-28T12:33:53;1.20;;;1.20;;
20294;SDS011;10306;52.128;5.208;2023-02-28T12:36:22;1.80;;;1.70;;
20294;SDS011;10306;52.128;5.208;2023-02-28T12:39:25;1.53;;;1.43;;
20294;SDS011;10306;52.128;5.208;2023-02-28T12:41:46;1.40;;;1.30;;
20294;SDS011;10306;52.128;5.208;2023-02-28T12:44:17;1.30;;;1.30;;
20294;SDS011;10306;52.128;5.208;2023-02-28T12:46:47;1.67;;;1.60;;
20294;SDS011;10306;52.128;5.208;2023-02-28T12:51:40;1.70;;;1.60;;
20294;SDS011;10306;52.128;5.208;2023-02-28T12:54:19;1.93;;;1.70;;
20294;SDS011;10306;52.128;5.208;2023-02-28T12:56:48;1.40;;;1.40;;
20294;SDS011;10306;52.128;5.208;2023-02-28T12:59:23;1.70;;;1.60;;
20294;SDS011;10306;52.128;5.208;2023-02-28T13:07:18;2.63;;;1.50;;
20294;SDS011;10306;52.128;5.208;2023-02-28T13:09:56;1.70;;;1.70;;
20294;SDS011;10306;52.128;5.208;2023-02-28T13:12:23;1.57;;;1.47;;
20294;SDS011;10306;52.128;5.208;2023-02-28T13:14:49;1.43;;;1.40;;
20294;SDS011;10306;52.128;5.208;2023-02-28T13:17:20;1.20;;;1.20;;
20294;SDS011;10306;52.128;5.208;2023-02-28T13:19:55;1.50;;;1.50;;
20294;SDS011;10306;52.128;5.208;2023-02-28T13:24:52;1.50;;;1.40;;
20294;SDS011;10306;52.128;5.208;2023-02-28T13:29:50;1.40;;;1.40;;
20294;SDS011;10306;52.128;5.208;2023-02-28T13:32:28;1.95;;;1.50;;
20294;SDS011;10306;52.128;5.208;2023-02-28T13:40:05;1.27;;;1.27;;
20294;SDS011;10306;52.128;5.208;2023-02-28T13:47:28;1.53;;;1.50;;
20294;SDS011;10306;52.128;5.208;2023-02-28T13:50:13;1.70;;;1.60;;
20294;SDS011;10306;52.128;5.208;2023-02-28T13:53:26;1.50;;;1.50;;
20294;SDS011;10306;52.128;5.208;2023-02-28T14:08:52;1.90;;;1.80;;
20294;SDS011;10306;52.128;5.208;2023-02-28T14:13:54;1.55;;;1.55;;
20294;SDS011;10306;52.128;5.208;2023-02-28T14:16:21;2.00;;;1.90;;
20294;SDS011;10306;52.128;5.208;2023-02-28T14:19:01;1.80;;;1.70;;
20294;SDS011;10306;52.128;5.208;2023-02-28T14:21:32;1.80;;;1.67;;
20294;SDS011;10306;52.128;5.208;2023-02-28T14:26:49;2.00;;;1.90;;
20294;SDS011;10306;52.128;5.208;2023-02-28T14:29:35;1.88;;;1.67;;
20294;SDS011;10306;52.128;5.208;2023-02-28T14:32:15;1.73;;;1.73;;
20294;SDS011;10306;52.128;5.208;2023-02-28T14:37:29;1.90;;;1.80;;
20294;SDS011;10306;52.128;5.208;2023-02-28T14:39:57;1.73;;;1.73;;
20294;SDS011;10306;52.128;5.208;2023-02-28T14:42:36;2.10;;;2.00;;
20294;SDS011;10306;52.128;5.208;2023-02-28T14:45:03;2.27;;;1.90;;
20294;SDS011;10306;52.128;5.208;2023-02-28T14:47:30;1.60;;;1.60;;
20294;SDS011;10306;52.128;5.208;2023-02-28T14:49:58;1.90;;;1.80;;
20294;SDS011;10306;52.128;5.208;2023-02-28T14:52:24;1.60;;;1.60;;
20294;SDS011;10306;52.128;5.208;2023-02-28T14:54:57;1.73;;;1.40;;
20294;SDS011;10306;52.128;5.208;2023-02-28T14:59:57;1.70;;;1.63;;
20294;SDS011;10306;52.128;5.208;2023-02-28T15:02:23;1.67;;;1.60;;
20294;SDS011;10306;52.128;5.208;2023-02-28T15:04:56;1.90;;;1.80;;
20294;SDS011;10306;52.128;5.208;2023-02-28T15:07:22;1.60;;;1.60;;
20294;SDS011;10306;52.128;5.208;2023-02-28T15:12:39;1.67;;;1.57;;
20294;SDS011;10306;52.128;5.208;2023-02-28T15:15:06;1.87;;;1.77;;
20294;SDS011;10306;52.128;5.208;2023-02-28T15:17:39;1.70;;;1.70;;
20294;SDS011;10306;52.128;5.208;2023-02-28T15:20:05;1.90;;;1.80;;
20294;SDS011;10306;52.128;5.208;2023-02-28T15:22:36;1.80;;;1.70;;
20294;SDS011;10306;52.128;5.208;2023-02-28T15:25:03;1.87;;;1.77;;
20294;SDS011;10306;52.128;5.208;2023-02-28T15:27:31;2.20;;;1.60;;
20294;SDS011;10306;52.128;5.208;2023-02-28T15:29:58;1.63;;;1.53;;
20294;SDS011;10306;52.128;5.208;2023-02-28T15:32:35;1.53;;;1.53;;
20294;SDS011;10306;52.128;5.208;2023-02-28T15:35:18;1.53;;;1.53;;
20294;SDS011;10306;52.128;5.208;2023-02-28T15:37:46;1.70;;;1.60;;
20294;SDS011;10306;52.128;5.208;2023-02-28T15:42:57;1.80;;;1.70;;
20294;SDS011;10306;52.128;5.208;2023-02-28T15:45:34;1.87;;;1.60;;
20294;SDS011;10306;52.128;5.208;2023-02-28T15:48:03;1.70;;;1.60;;
20294;SDS011;10306;52.128;5.208;2023-02-28T15:50:29;1.60;;;1.60;;
20294;SDS011;10306;52.128;5.208;2023-02-28T15:52:55;1.60;;;1.50;;
20294;SDS011;10306;52.128;5.208;2023-02-28T15:55:26;1.70;;;1.70;;
20294;SDS011;10306;52.128;5.208;2023-02-28T15:57:53;1.50;;;1.50;;
20294;SDS011;10306;52.128;5.208;2023-02-28T16:00:20;2.00;;;1.50;;
20294;SDS011;10306;52.128;5.208;2023-02-28T16:02:46;4.50;;;1.70;;
20294;SDS011;10306;52.128;5.208;2023-02-28T16:05:20;1.90;;;1.80;;
20294;SDS011;10306;52.128;5.208;2023-02-28T16:07:53;1.73;;;1.43;;
20294;SDS011;10306;52.128;5.208;2023-02-28T16:10:23;1.50;;;1.40;;
20294;SDS011;10306;52.128;5.208;2023-02-28T16:12:52;1.63;;;1.60;;
20294;SDS011;10306;52.128;5.208;2023-02-28T16:17:44;1.67;;;1.57;;
20294;SDS011;10306;52.128;5.208;2023-02-28T16:20:15;1.40;;;1.30;;
20294;SDS011;10306;52.128;5.208;2023-02-28T16:22:42;2.87;;;1.77;;
20294;SDS011;10306;52.128;5.208;2023-02-28T16:25:11;1.53;;;1.50;;
20294;SDS011;10306;52.128;5.208;2023-02-28T16:27:37;1.70;;;1.60;;
20294;SDS011;10306;52.128;5.208;2023-02-28T16:30:04;1.47;;;1.47;;
20294;SDS011;10306;52.128;5.208;2023-02-28T16:32:31;1.50;;;1.40;;
20294;SDS011;10306;52.128;5.208;2023-02-28T16:34:57;1.40;;;1.40;;
20294;SDS011;10306;52.128;5.208;2023-02-28T16:37:23;1.53;;;1.47;;
20294;SDS011;10306;52.128;5.208;2023-02-28T16:39:49;2.37;;;1.73;;
20294;SDS011;10306;52.128;5.208;2023-02-28T16:42:18;1.80;;;1.70;;
20294;SDS011;10306;52.128;5.208;2023-02-28T16:44:46;1.50;;;1.50;;
20294;SDS011;10306;52.128;5.208;2023-02-28T16:47:12;1.67;;;1.30;;
20294;SDS011;10306;52.128;5.208;2023-02-28T16:49:38;8.23;;;1.70;;
20294;SDS011;10306;52.128;5.208;2023-02-28T16:52:07;1.50;;;1.50;;
20294;SDS011;10306;52.128;5.208;2023-02-28T16:54:33;1.73;;;1.70;;
20294;SDS011;10306;52.128;5.208;2023-02-28T16:56:59;1.70;;;1.60;;
20294;SDS011;10306;52.128;5.208;2023-02-28T16:59:25;1.97;;;1.87;;